createdAt,value
2018-02-17T00:00:11.686Z,5.36
2018-02-17T00:00:37.831Z,5.32
2018-02-17T00:01:03.963Z,5.28
2018-02-17T00:01:30.061Z,5.3
2018-02-17T00:01:56.223Z,5.2
2018-02-17T00:02:22.383Z,5.23
2018-02-17T00:02:48.510Z,5.11
2018-02-17T00:03:14.723Z,5.11
2018-02-17T00:03:40.818Z,5.11
2018-02-17T00:04:06.936Z,5.18
2018-02-17T00:04:33.057Z,5.17
2018-02-17T00:04:59.232Z,5.08
2018-02-17T00:05:25.351Z,5.2
2018-02-17T00:05:51.502Z,5.14
2018-02-17T00:06:17.598Z,5.11
2018-02-17T00:06:43.698Z,5.12
2018-02-17T00:07:09.805Z,5.11
2018-02-17T00:07:35.904Z,5.15
2018-02-17T00:08:02.075Z,5.11
2018-02-17T00:08:28.182Z,5.1
2018-02-17T00:08:54.341Z,5.08
2018-02-17T00:09:20.463Z,4.9
2018-02-17T00:09:46.566Z,5.04
2018-02-17T00:10:12.661Z,5.08
2018-02-17T00:10:38.763Z,5
2018-02-17T00:11:04.864Z,5.07
2018-02-17T00:11:30.961Z,4.87
2018-02-17T00:11:57.071Z,4.93
2018-02-17T00:12:23.404Z,4.93
2018-02-17T00:12:49.560Z,4.94
2018-02-17T00:13:15.708Z,4.92
2018-02-17T00:13:41.803Z,5.05
2018-02-17T00:14:07.904Z,4.96
2018-02-17T00:14:34.009Z,5
2018-02-17T00:15:00.877Z,5.05
2018-02-17T00:15:26.981Z,5.11
2018-02-17T00:15:53.078Z,5.1
2018-02-17T00:16:19.183Z,5.04
2018-02-17T00:16:45.282Z,5.04
2018-02-17T00:17:11.418Z,5.07
2018-02-17T00:17:37.912Z,5.02
2018-02-17T00:18:03.986Z,5.02
2018-02-17T00:18:30.090Z,5.11
2018-02-17T00:18:56.201Z,5.05
2018-02-17T00:19:22.304Z,5
2018-02-17T00:19:48.410Z,4.99
2018-02-17T00:20:14.809Z,5.1
2018-02-17T00:20:41.006Z,5.05
2018-02-17T00:21:07.108Z,5.17
2018-02-17T00:21:33.211Z,5.11
2018-02-17T00:21:59.307Z,5.14
2018-02-17T00:22:25.412Z,5.12
2018-02-17T00:22:51.507Z,5.11
2018-02-17T00:23:17.614Z,5
2018-02-17T00:23:43.710Z,5.17
2018-02-17T00:24:09.955Z,5.1
2018-02-17T00:24:36.060Z,5.1
2018-02-17T00:25:02.155Z,5.04
2018-02-17T00:25:28.257Z,5.12
2018-02-17T00:25:54.358Z,5.12
2018-02-17T00:26:20.451Z,5.11
2018-02-17T00:26:46.550Z,5.12
2018-02-17T00:27:12.654Z,5.05
2018-02-17T00:27:38.751Z,5.1
2018-02-17T00:28:04.853Z,5.04
2018-02-17T00:28:30.955Z,5.08
2018-02-17T00:28:57.050Z,5
2018-02-17T00:29:23.155Z,4.93
2018-02-17T00:29:49.268Z,4.93
2018-02-17T00:30:15.382Z,5.05
2018-02-17T00:30:41.551Z,4.89
2018-02-17T00:31:07.726Z,4.87
2018-02-17T00:31:33.832Z,5.07
2018-02-17T00:31:59.936Z,5.02
2018-02-17T00:32:26.032Z,4.89
2018-02-17T00:32:52.141Z,4.93
2018-02-17T00:33:18.240Z,5.05
2018-02-17T00:33:44.339Z,5.04
2018-02-17T00:34:10.446Z,4.96
2018-02-17T00:34:36.538Z,4.84
2018-02-17T00:35:02.643Z,4.77
2018-02-17T00:35:28.737Z,4.68
2018-02-17T00:35:54.835Z,4.73
2018-02-17T00:36:20.939Z,4.74
2018-02-17T00:36:47.037Z,4.68
2018-02-17T00:37:13.156Z,4.67
2018-02-17T00:37:39.256Z,4.74
2018-02-17T00:38:05.386Z,4.78
2018-02-17T00:38:31.501Z,4.74
2018-02-17T00:38:57.600Z,4.67
2018-02-17T00:39:23.744Z,4.8
2018-02-17T00:39:50.854Z,4.78
2018-02-17T00:40:16.975Z,4.75
2018-02-17T00:40:43.077Z,4.82
2018-02-17T00:41:09.174Z,4.77
2018-02-17T00:41:35.274Z,4.89
2018-02-17T00:42:01.373Z,4.96
2018-02-17T00:42:27.468Z,4.93
2018-02-17T00:42:53.572Z,4.9
2018-02-17T00:43:19.667Z,4.93
2018-02-17T00:43:45.768Z,4.89
2018-02-17T00:44:11.948Z,4.9
2018-02-17T00:44:38.044Z,4.78
2018-02-17T00:45:04.146Z,4.75
2018-02-17T00:45:30.270Z,4.86
2018-02-17T00:45:56.374Z,4.84
2018-02-17T00:46:22.469Z,4.8
2018-02-17T00:46:48.586Z,4.78
2018-02-17T00:47:14.686Z,4.9
2018-02-17T00:47:40.800Z,4.94
2018-02-17T00:48:06.902Z,4.8
2018-02-17T00:48:33.001Z,4.92
2018-02-17T00:48:59.104Z,4.8
2018-02-17T00:49:25.226Z,4.75
2018-02-17T00:49:51.328Z,4.82
2018-02-17T00:50:17.436Z,4.82
2018-02-17T00:50:43.529Z,4.8
2018-02-17T00:51:09.630Z,4.74
2018-02-17T00:51:35.792Z,4.66
2018-02-17T00:52:01.888Z,4.66
2018-02-17T00:52:27.992Z,4.67
2018-02-17T00:52:54.088Z,4.7
2018-02-17T00:53:20.209Z,4.68
2018-02-17T00:53:46.345Z,4.73
2018-02-17T00:54:12.447Z,4.82
2018-02-17T00:54:38.545Z,4.8
2018-02-17T00:55:04.640Z,4.84
2018-02-17T00:55:30.740Z,4.82
2018-02-17T00:55:56.835Z,4.82
2018-02-17T00:56:22.930Z,4.84
2018-02-17T00:56:49.036Z,4.77
2018-02-17T00:57:15.132Z,4.8
2018-02-17T00:57:41.231Z,4.8
2018-02-17T00:58:07.333Z,4.78
2018-02-17T00:58:33.433Z,4.74
2018-02-17T00:58:59.529Z,4.78
2018-02-17T00:59:25.637Z,4.74
2018-02-17T00:59:51.756Z,4.74
2018-02-17T01:00:17.859Z,4.77
2018-02-17T01:00:43.971Z,4.78
2018-02-17T01:01:10.076Z,4.82
2018-02-17T01:01:36.172Z,4.82
2018-02-17T01:02:02.271Z,4.77
2018-02-17T01:02:28.368Z,4.8
2018-02-17T01:02:54.490Z,4.74
2018-02-17T01:03:20.584Z,4.67
2018-02-17T01:03:46.690Z,4.8
2018-02-17T01:04:12.790Z,4.78
2018-02-17T01:04:38.887Z,4.8
2018-02-17T01:05:05.024Z,4.77
2018-02-17T01:05:31.122Z,4.78
2018-02-17T01:06:00.253Z,4.77
2018-02-17T01:06:26.358Z,4.66
2018-02-17T01:06:52.458Z,4.67
2018-02-17T01:07:18.588Z,4.74
2018-02-17T01:07:44.694Z,4.77
2018-02-17T01:08:10.787Z,4.71
2018-02-17T01:08:36.891Z,4.75
2018-02-17T01:09:02.989Z,4.63
2018-02-17T01:09:29.089Z,4.68
2018-02-17T01:09:55.184Z,4.7
2018-02-17T01:10:21.315Z,4.74
2018-02-17T01:10:47.418Z,4.66
2018-02-17T01:11:13.520Z,4.71
2018-02-17T01:11:39.618Z,4.74
2018-02-17T01:12:05.713Z,4.82
2018-02-17T01:12:31.819Z,4.86
2018-02-17T01:12:57.919Z,4.82
2018-02-17T01:13:24.061Z,4.75
2018-02-17T01:13:50.123Z,4.77
2018-02-17T01:14:16.221Z,4.77
2018-02-17T01:14:42.337Z,4.78
2018-02-17T01:15:08.438Z,4.77
2018-02-17T01:15:34.542Z,4.8
2018-02-17T01:16:00.642Z,4.77
2018-02-17T01:16:26.759Z,4.71
2018-02-17T01:16:52.857Z,4.74
2018-02-17T01:17:18.953Z,4.75
2018-02-17T01:17:45.057Z,4.75
2018-02-17T01:18:11.158Z,4.78
2018-02-17T01:18:37.256Z,4.94
2018-02-17T01:19:03.358Z,4.97
2018-02-17T01:19:29.456Z,4.93
2018-02-17T01:19:55.552Z,4.77
2018-02-17T01:20:21.659Z,4.89
2018-02-17T01:20:47.753Z,4.92
2018-02-17T01:21:13.863Z,4.93
2018-02-17T01:21:39.960Z,4.93
2018-02-17T01:22:06.060Z,4.9
2018-02-17T01:22:32.148Z,4.93
2018-02-17T01:22:58.248Z,4.9
2018-02-17T01:23:24.353Z,4.94
2018-02-17T01:23:50.452Z,4.93
2018-02-17T01:24:16.551Z,4.92
2018-02-17T01:24:42.656Z,4.93
2018-02-17T01:25:08.756Z,4.87
2018-02-17T01:25:34.855Z,4.86
2018-02-17T01:26:00.965Z,4.84
2018-02-17T01:26:27.084Z,4.82
2018-02-17T01:26:53.206Z,4.82
2018-02-17T01:27:19.303Z,4.8
2018-02-17T01:27:45.445Z,4.75
2018-02-17T01:28:11.586Z,4.74
2018-02-17T01:28:37.708Z,4.78
2018-02-17T01:29:03.849Z,4.77
2018-02-17T01:29:29.961Z,4.74
2018-02-17T01:29:56.070Z,4.78
2018-02-17T01:30:22.174Z,4.75
2018-02-17T01:30:48.273Z,4.8
2018-02-17T01:31:14.377Z,4.82
2018-02-17T01:31:40.489Z,4.8
2018-02-17T01:32:06.661Z,4.8
2018-02-17T01:32:32.760Z,4.87
2018-02-17T01:32:58.888Z,4.78
2018-02-17T01:33:24.972Z,4.78
2018-02-17T01:33:51.096Z,4.77
2018-02-17T01:34:17.204Z,4.8
2018-02-17T01:34:43.338Z,4.74
2018-02-17T01:35:09.429Z,4.75
2018-02-17T01:35:35.542Z,4.77
2018-02-17T01:36:01.671Z,4.67
2018-02-17T01:36:27.800Z,4.62
2018-02-17T01:36:53.898Z,4.52
2018-02-17T01:37:20.075Z,4.4
2018-02-17T01:37:46.151Z,4.26
2018-02-17T01:38:12.326Z,4.31
2018-02-17T01:38:38.450Z,4.16
2018-02-17T01:39:04.555Z,4.04
2018-02-17T01:39:30.672Z,4.01
2018-02-17T01:39:56.768Z,3.96
2018-02-17T01:40:22.875Z,3.86
2018-02-17T01:40:48.974Z,3.84
2018-02-17T01:41:15.095Z,3.73
2018-02-17T01:41:41.241Z,3.77
2018-02-17T01:42:07.411Z,3.65
2018-02-17T01:42:33.517Z,3.66
2018-02-17T01:42:59.635Z,3.63
2018-02-17T01:43:25.731Z,3.48
2018-02-17T01:43:51.833Z,3.51
2018-02-17T01:44:17.935Z,3.55
2018-02-17T01:44:44.033Z,3.56
2018-02-17T01:45:10.132Z,3.51
2018-02-17T01:45:36.252Z,3.47
2018-02-17T01:46:02.373Z,3.51
2018-02-17T01:46:28.473Z,3.5
2018-02-17T01:46:54.573Z,3.56
2018-02-17T01:47:20.692Z,3.56
2018-02-17T01:47:46.792Z,3.58
2018-02-17T01:48:12.893Z,3.68
2018-02-17T01:48:38.986Z,3.77
2018-02-17T01:49:05.089Z,3.69
2018-02-17T01:49:31.186Z,3.69
2018-02-17T01:49:57.289Z,3.73
2018-02-17T01:50:23.404Z,3.7
2018-02-17T01:50:49.520Z,3.69
2018-02-17T01:51:15.627Z,3.62
2018-02-17T01:51:42.023Z,3.7
2018-02-17T01:52:08.124Z,3.65
2018-02-17T01:52:34.254Z,3.6
2018-02-17T01:53:00.358Z,3.73
2018-02-17T01:53:26.454Z,3.66
2018-02-17T01:53:52.552Z,3.7
2018-02-17T01:54:18.679Z,3.63
2018-02-17T01:54:44.782Z,3.65
2018-02-17T01:55:10.875Z,3.81
2018-02-17T01:55:36.979Z,3.86
2018-02-17T01:56:03.087Z,3.84
2018-02-17T01:56:29.197Z,3.88
2018-02-17T01:56:55.302Z,4.01
2018-02-17T01:57:21.397Z,3.96
2018-02-17T01:57:47.536Z,3.98
2018-02-17T01:58:13.653Z,3.96
2018-02-17T01:58:40.059Z,3.98
2018-02-17T01:59:06.155Z,3.96
2018-02-17T01:59:32.258Z,3.86
2018-02-17T01:59:58.353Z,3.8
2018-02-17T02:00:24.475Z,3.84
2018-02-17T02:00:50.586Z,3.8
2018-02-17T02:01:16.684Z,3.78
2018-02-17T02:01:42.782Z,3.8
2018-02-17T02:02:08.886Z,3.84
2018-02-17T02:02:34.989Z,3.86
2018-02-17T02:03:01.085Z,3.87
2018-02-17T02:03:27.199Z,3.87
2018-02-17T02:03:53.303Z,3.88
2018-02-17T02:04:19.406Z,3.92
2018-02-17T02:04:45.497Z,3.94
2018-02-17T02:05:11.601Z,3.98
2018-02-17T02:05:38.086Z,4.06
2018-02-17T02:06:04.128Z,4.02
2018-02-17T02:06:30.227Z,4.08
2018-02-17T02:06:56.335Z,4.01
2018-02-17T02:07:22.450Z,4.05
2018-02-17T02:07:48.544Z,4.08
2018-02-17T02:08:14.661Z,4.08
2018-02-17T02:08:40.756Z,4.2
2018-02-17T02:09:06.860Z,4.14
2018-02-17T02:09:32.957Z,4.16
2018-02-17T02:09:59.052Z,4.2
2018-02-17T02:10:25.158Z,4.22
2018-02-17T02:10:51.274Z,4.26
2018-02-17T02:11:17.376Z,4.22
2018-02-17T02:11:43.472Z,4.28
2018-02-17T02:12:09.566Z,4.23
2018-02-17T02:12:36.383Z,4.23
2018-02-17T02:13:02.409Z,4.17
2018-02-17T02:13:28.506Z,4.2
2018-02-17T02:13:54.611Z,4.16
2018-02-17T02:14:20.714Z,4.19
2018-02-17T02:14:46.817Z,4.13
2018-02-17T02:15:12.910Z,4.16
2018-02-17T02:15:39.039Z,4.24
2018-02-17T02:16:05.135Z,4.23
2018-02-17T02:16:31.237Z,4.23
2018-02-17T02:16:57.336Z,4.35
2018-02-17T02:17:23.432Z,4.26
2018-02-17T02:17:49.539Z,4.23
2018-02-17T02:18:15.643Z,4.28
2018-02-17T02:18:41.741Z,4.2
2018-02-17T02:19:07.844Z,4.17
2018-02-17T02:19:33.935Z,4.16
2018-02-17T02:20:00.048Z,4.08
2018-02-17T02:20:26.148Z,4.06
2018-02-17T02:20:52.252Z,3.98
2018-02-17T02:21:18.350Z,3.95
2018-02-17T02:21:44.446Z,4.08
2018-02-17T02:22:10.550Z,4.04
2018-02-17T02:22:36.644Z,4.05
2018-02-17T02:23:02.745Z,3.94
2018-02-17T02:23:28.846Z,3.95
2018-02-17T02:23:54.940Z,4.06
2018-02-17T02:24:21.050Z,4.02
2018-02-17T02:24:47.155Z,4.08
2018-02-17T02:25:13.287Z,4.04
2018-02-17T02:25:39.387Z,3.99
2018-02-17T02:26:05.486Z,3.99
2018-02-17T02:26:31.590Z,3.95
2018-02-17T02:26:57.686Z,3.96
2018-02-17T02:27:23.791Z,3.88
2018-02-17T02:27:49.909Z,3.84
2018-02-17T02:28:16.006Z,3.81
2018-02-17T02:28:42.134Z,3.81
2018-02-17T02:29:08.317Z,3.66
2018-02-17T02:29:34.418Z,3.63
2018-02-17T02:30:00.557Z,3.66
2018-02-17T02:30:26.662Z,3.8
2018-02-17T02:30:52.993Z,3.73
2018-02-17T02:31:19.090Z,3.74
2018-02-17T02:31:45.192Z,3.76
2018-02-17T02:32:11.293Z,3.63
2018-02-17T02:32:37.399Z,3.77
2018-02-17T02:33:03.495Z,3.83
2018-02-17T02:33:29.586Z,3.83
2018-02-17T02:33:55.687Z,3.77
2018-02-17T02:34:21.785Z,3.78
2018-02-17T02:34:47.892Z,3.78
2018-02-17T02:35:14.005Z,3.65
2018-02-17T02:35:40.119Z,3.62
2018-02-17T02:36:06.216Z,3.55
2018-02-17T02:36:32.341Z,3.47
2018-02-17T02:36:58.444Z,3.51
2018-02-17T02:37:24.538Z,3.45
2018-02-17T02:37:50.641Z,3.55
2018-02-17T02:38:16.749Z,3.55
2018-02-17T02:38:42.862Z,3.56
2018-02-17T02:39:08.965Z,3.58
2018-02-17T02:39:35.084Z,3.58
2018-02-17T02:40:01.185Z,3.62
2018-02-17T02:40:27.277Z,3.63
2018-02-17T02:40:53.479Z,3.68
2018-02-17T02:41:19.611Z,3.73
2018-02-17T02:41:45.710Z,3.77
2018-02-17T02:42:11.809Z,3.74
2018-02-17T02:42:37.906Z,3.74
2018-02-17T02:43:04.005Z,3.68
2018-02-17T02:43:30.105Z,3.68
2018-02-17T02:43:56.209Z,3.62
2018-02-17T02:44:22.306Z,3.77
2018-02-17T02:44:48.438Z,3.76
2018-02-17T02:45:14.561Z,3.68
2018-02-17T02:45:40.697Z,3.62
2018-02-17T02:46:06.799Z,3.7
2018-02-17T02:46:32.893Z,3.65
2018-02-17T02:46:58.990Z,3.73
2018-02-17T02:47:25.095Z,3.78
2018-02-17T02:47:51.188Z,3.65
2018-02-17T02:48:17.290Z,3.63
2018-02-17T02:48:43.389Z,3.63
2018-02-17T02:49:09.491Z,3.68
2018-02-17T02:49:35.618Z,3.5
2018-02-17T02:50:01.722Z,3.56
2018-02-17T02:50:27.829Z,3.6
2018-02-17T02:50:53.955Z,3.53
2018-02-17T02:51:20.057Z,3.53
2018-02-17T02:51:46.167Z,3.53
2018-02-17T02:52:12.263Z,3.47
2018-02-17T02:52:38.374Z,3.44
2018-02-17T02:53:04.469Z,3.4
2018-02-17T02:53:30.564Z,3.41
2018-02-17T02:53:56.662Z,3.4
2018-02-17T02:54:22.784Z,3.44
2018-02-17T02:54:48.887Z,3.44
2018-02-17T02:55:14.994Z,3.51
2018-02-17T02:55:41.100Z,3.47
2018-02-17T02:56:07.203Z,3.56
2018-02-17T02:56:33.304Z,3.58
2018-02-17T02:56:59.398Z,3.59
2018-02-17T02:57:25.496Z,3.56
2018-02-17T02:57:51.595Z,3.68
2018-02-17T02:58:17.702Z,3.68
2018-02-17T02:58:43.800Z,3.68
2018-02-17T02:59:09.895Z,3.63
2018-02-17T02:59:35.996Z,3.69
2018-02-17T03:00:02.097Z,3.83
2018-02-17T03:00:28.190Z,3.86
2018-02-17T03:00:54.313Z,3.86
2018-02-17T03:01:20.408Z,3.86
2018-02-17T03:01:46.525Z,3.83
2018-02-17T03:02:12.633Z,3.8
2018-02-17T03:02:38.728Z,3.91
2018-02-17T03:03:04.826Z,3.86
2018-02-17T03:03:30.925Z,3.78
2018-02-17T03:03:57.022Z,3.95
2018-02-17T03:04:23.122Z,3.96
2018-02-17T03:04:49.218Z,3.98
2018-02-17T03:05:15.338Z,3.96
2018-02-17T03:05:41.416Z,3.94
2018-02-17T03:06:07.516Z,4.04
2018-02-17T03:06:33.623Z,4.06
2018-02-17T03:06:59.715Z,4.08
2018-02-17T03:07:25.819Z,3.92
2018-02-17T03:07:51.913Z,3.96
2018-02-17T03:08:18.016Z,3.96
2018-02-17T03:08:44.116Z,3.84
2018-02-17T03:09:10.213Z,3.81
2018-02-17T03:09:36.311Z,3.77
2018-02-17T03:10:02.408Z,3.8
2018-02-17T03:10:28.511Z,3.76
2018-02-17T03:10:54.607Z,3.66
2018-02-17T03:11:20.712Z,3.74
2018-02-17T03:11:46.810Z,3.68
2018-02-17T03:12:12.926Z,3.68
2018-02-17T03:12:39.043Z,3.65
2018-02-17T03:13:05.151Z,3.6
2018-02-17T03:13:31.253Z,3.56
2018-02-17T03:13:57.354Z,3.53
2018-02-17T03:14:23.451Z,3.63
2018-02-17T03:14:49.551Z,3.58
2018-02-17T03:15:15.650Z,3.53
2018-02-17T03:15:41.765Z,3.55
2018-02-17T03:16:07.874Z,3.62
2018-02-17T03:16:33.975Z,3.59
2018-02-17T03:17:00.089Z,3.58
2018-02-17T03:17:26.186Z,3.62
2018-02-17T03:17:52.283Z,3.66
2018-02-17T03:18:18.388Z,3.6
2018-02-17T03:18:44.507Z,3.6
2018-02-17T03:19:10.656Z,3.48
2018-02-17T03:19:36.699Z,3.5
2018-02-17T03:20:02.800Z,3.45
2018-02-17T03:20:28.912Z,3.5
2018-02-17T03:20:55.014Z,3.44
2018-02-17T03:21:21.111Z,3.48
2018-02-17T03:21:47.211Z,3.42
2018-02-17T03:22:13.333Z,3.55
2018-02-17T03:22:39.432Z,3.45
2018-02-17T03:23:05.540Z,3.56
2018-02-17T03:23:31.663Z,3.56
2018-02-17T03:23:57.756Z,3.55
2018-02-17T03:24:23.852Z,3.51
2018-02-17T03:24:49.960Z,3.51
2018-02-17T03:25:16.080Z,3.56
2018-02-17T03:25:42.181Z,3.53
2018-02-17T03:26:08.276Z,3.65
2018-02-17T03:26:34.378Z,3.62
2018-02-17T03:27:00.479Z,3.68
2018-02-17T03:27:26.576Z,3.69
2018-02-17T03:27:52.685Z,3.59
2018-02-17T03:28:18.772Z,3.77
2018-02-17T03:28:44.867Z,3.62
2018-02-17T03:29:10.971Z,3.66
2018-02-17T03:29:37.066Z,3.66
2018-02-17T03:30:03.188Z,3.63
2018-02-17T03:30:29.290Z,3.77
2018-02-17T03:30:55.384Z,3.7
2018-02-17T03:31:21.506Z,3.69
2018-02-17T03:31:47.598Z,3.7
2018-02-17T03:32:13.702Z,3.77
2018-02-17T03:32:39.815Z,3.74
2018-02-17T03:33:05.963Z,3.78
2018-02-17T03:33:32.037Z,3.65
2018-02-17T03:33:58.132Z,3.68
2018-02-17T03:34:24.233Z,3.81
2018-02-17T03:34:50.353Z,3.86
2018-02-17T03:35:16.452Z,3.83
2018-02-17T03:35:42.545Z,3.86
2018-02-17T03:36:08.690Z,3.88
2018-02-17T03:36:34.765Z,3.87
2018-02-17T03:37:00.865Z,3.81
2018-02-17T03:37:26.965Z,3.86
2018-02-17T03:37:53.056Z,3.83
2018-02-17T03:38:19.159Z,3.74
2018-02-17T03:38:45.275Z,3.74
2018-02-17T03:39:11.375Z,3.8
2018-02-17T03:39:37.471Z,3.94
2018-02-17T03:40:03.571Z,3.95
2018-02-17T03:40:29.674Z,3.91
2018-02-17T03:40:55.768Z,3.98
2018-02-17T03:41:21.867Z,3.94
2018-02-17T03:41:47.971Z,3.86
2018-02-17T03:42:14.068Z,3.78
2018-02-17T03:42:40.193Z,3.8
2018-02-17T03:43:06.298Z,3.78
2018-02-17T03:43:32.399Z,3.63
2018-02-17T03:43:58.501Z,3.69
2018-02-17T03:44:24.596Z,3.56
2018-02-17T03:44:50.707Z,3.55
2018-02-17T03:45:16.816Z,3.51
2018-02-17T03:45:42.912Z,3.42
2018-02-17T03:46:09.007Z,3.4
2018-02-17T03:46:35.110Z,3.4
2018-02-17T03:47:01.202Z,3.34
2018-02-17T03:47:27.303Z,3.25
2018-02-17T03:47:53.406Z,3.26
2018-02-17T03:48:19.505Z,3.29
2018-02-17T03:48:45.609Z,3.25
2018-02-17T03:49:11.724Z,3.23
2018-02-17T03:49:37.821Z,3.28
2018-02-17T03:50:03.925Z,3.28
2018-02-17T03:50:30.026Z,3.28
2018-02-17T03:50:56.139Z,3.21
2018-02-17T03:51:22.244Z,3.31
2018-02-17T03:51:48.338Z,3.21
2018-02-17T03:52:14.437Z,3.19
2018-02-17T03:52:40.539Z,3.11
2018-02-17T03:53:06.634Z,3.18
2018-02-17T03:53:32.741Z,3.14
2018-02-17T03:53:58.839Z,3.11
2018-02-17T03:54:24.934Z,3.13
2018-02-17T03:54:51.047Z,3.1
2018-02-17T03:55:17.146Z,3.05
2018-02-17T03:55:43.249Z,3.11
2018-02-17T03:56:09.360Z,3.13
2018-02-17T03:56:35.457Z,3.11
2018-02-17T03:57:01.561Z,3.16
2018-02-17T03:57:27.661Z,3.26
2018-02-17T03:57:53.759Z,3.21
2018-02-17T03:58:19.852Z,3.21
2018-02-17T03:58:45.958Z,3.21
2018-02-17T03:59:12.058Z,3.23
2018-02-17T03:59:38.191Z,3.21
2018-02-17T04:00:04.263Z,3.13
2018-02-17T04:00:30.363Z,3.14
2018-02-17T04:00:56.454Z,3.14
2018-02-17T04:01:22.556Z,3.22
2018-02-17T04:01:48.664Z,3.22
2018-02-17T04:02:14.758Z,3.22
2018-02-17T04:02:40.862Z,3.21
2018-02-17T04:03:06.954Z,3.21
2018-02-17T04:03:33.053Z,3.28
2018-02-17T04:03:59.158Z,3.25
2018-02-17T04:04:25.254Z,3.25
2018-02-17T04:04:51.351Z,3.23
2018-02-17T04:05:17.461Z,3.31
2018-02-17T04:05:43.551Z,3.25
2018-02-17T04:06:09.650Z,3.23
2018-02-17T04:06:35.746Z,3.28
2018-02-17T04:07:01.850Z,3.41
2018-02-17T04:07:27.952Z,3.45
2018-02-17T04:07:54.051Z,3.44
2018-02-17T04:08:20.155Z,3.45
2018-02-17T04:08:46.246Z,3.51
2018-02-17T04:09:12.371Z,3.53
2018-02-17T04:09:38.472Z,3.5
2018-02-17T04:10:04.594Z,3.56
2018-02-17T04:10:30.700Z,3.58
2018-02-17T04:10:56.803Z,3.65
2018-02-17T04:11:22.902Z,3.58
2018-02-17T04:11:48.996Z,3.69
2018-02-17T04:12:15.136Z,3.62
2018-02-17T04:12:41.220Z,3.73
2018-02-17T04:13:07.313Z,3.62
2018-02-17T04:13:33.429Z,3.74
2018-02-17T04:13:59.532Z,3.68
2018-02-17T04:14:25.626Z,3.69
2018-02-17T04:14:51.726Z,3.78
2018-02-17T04:15:17.828Z,3.63
2018-02-17T04:15:43.922Z,3.73
2018-02-17T04:16:10.023Z,3.62
2018-02-17T04:16:36.126Z,3.66
2018-02-17T04:17:02.225Z,3.59
2018-02-17T04:17:28.326Z,3.59
2018-02-17T04:17:54.420Z,3.48
2018-02-17T04:18:20.541Z,3.48
2018-02-17T04:18:46.635Z,3.44
2018-02-17T04:19:12.734Z,3.41
2018-02-17T04:19:38.838Z,3.44
2018-02-17T04:20:04.934Z,3.44
2018-02-17T04:20:31.039Z,3.41
2018-02-17T04:20:57.180Z,3.41
2018-02-17T04:21:23.275Z,3.34
2018-02-17T04:21:49.376Z,3.32
2018-02-17T04:22:15.470Z,3.28
2018-02-17T04:22:41.573Z,3.22
2018-02-17T04:23:07.667Z,3.23
2018-02-17T04:23:33.764Z,3.25
2018-02-17T04:23:59.867Z,3.18
2018-02-17T04:24:25.960Z,3.22
2018-02-17T04:24:52.061Z,3.18
2018-02-17T04:25:18.163Z,3.14
2018-02-17T04:25:44.258Z,3.13
2018-02-17T04:26:10.374Z,3.03
2018-02-17T04:26:36.467Z,3.03
2018-02-17T04:27:02.566Z,3.03
2018-02-17T04:27:28.673Z,2.97
2018-02-17T04:27:54.769Z,2.95
2018-02-17T04:28:20.873Z,3.01
2018-02-17T04:28:46.974Z,2.93
2018-02-17T04:29:13.069Z,2.97
2018-02-17T04:29:39.183Z,2.9
2018-02-17T04:30:05.283Z,2.97
2018-02-17T04:30:31.384Z,2.95
2018-02-17T04:30:57.485Z,3
2018-02-17T04:31:23.581Z,3.01
2018-02-17T04:31:49.695Z,3.03
2018-02-17T04:32:15.797Z,3.01
2018-02-17T04:32:41.889Z,3
2018-02-17T04:33:08.019Z,2.98
2018-02-17T04:33:34.137Z,3.04
2018-02-17T04:34:00.231Z,2.95
2018-02-17T04:34:26.336Z,2.97
2018-02-17T04:34:52.437Z,2.98
2018-02-17T04:35:18.531Z,2.98
2018-02-17T04:35:44.636Z,2.89
2018-02-17T04:36:10.736Z,2.85
2018-02-17T04:36:36.833Z,2.86
2018-02-17T04:37:02.929Z,2.85
2018-02-17T04:37:29.027Z,2.85
2018-02-17T04:37:55.129Z,2.83
2018-02-17T04:38:21.228Z,2.86
2018-02-17T04:38:47.331Z,2.71
2018-02-17T04:39:13.432Z,2.69
2018-02-17T04:39:39.526Z,2.75
2018-02-17T04:40:05.624Z,2.77
2018-02-17T04:40:31.726Z,2.83
2018-02-17T04:40:57.832Z,2.69
2018-02-17T04:41:23.924Z,2.71
2018-02-17T04:41:50.041Z,2.71
2018-02-17T04:42:16.147Z,2.71
2018-02-17T04:42:42.242Z,2.67
2018-02-17T04:43:08.343Z,2.77
2018-02-17T04:43:34.438Z,2.86
2018-02-17T04:44:00.539Z,2.82
2018-02-17T04:44:26.664Z,2.86
2018-02-17T04:44:52.758Z,2.86
2018-02-17T04:45:18.857Z,2.92
2018-02-17T04:45:44.945Z,2.87
2018-02-17T04:46:11.053Z,2.97
2018-02-17T04:46:37.146Z,2.97
2018-02-17T04:47:03.250Z,2.95
2018-02-17T04:47:29.370Z,3.03
2018-02-17T04:47:55.471Z,3.08
2018-02-17T04:48:21.561Z,3.08
2018-02-17T04:48:47.668Z,3.07
2018-02-17T04:49:13.764Z,3.18
2018-02-17T04:49:39.866Z,3.08
2018-02-17T04:50:05.979Z,3.07
2018-02-17T04:50:32.083Z,3.01
2018-02-17T04:50:58.175Z,3.01
2018-02-17T04:51:24.274Z,3.01
2018-02-17T04:51:50.372Z,2.97
2018-02-17T04:52:16.469Z,3
2018-02-17T04:52:42.597Z,3.03
2018-02-17T04:53:08.694Z,2.93
2018-02-17T04:53:34.798Z,3.05
2018-02-17T04:54:00.893Z,3.01
2018-02-17T04:54:26.999Z,3.05
2018-02-17T04:54:53.096Z,3.04
2018-02-17T04:55:19.193Z,3.03
2018-02-17T04:55:45.289Z,3.07
2018-02-17T04:56:11.387Z,3.03
2018-02-17T04:56:37.492Z,3.03
2018-02-17T04:57:03.586Z,2.87
2018-02-17T04:57:29.686Z,2.93
2018-02-17T04:57:55.786Z,2.97
2018-02-17T04:58:21.881Z,2.85
2018-02-17T04:58:47.978Z,2.77
2018-02-17T04:59:14.084Z,2.8
2018-02-17T04:59:40.178Z,2.72
2018-02-17T05:00:06.282Z,2.71
2018-02-17T05:00:32.383Z,2.67
2018-02-17T05:00:58.479Z,2.64
2018-02-17T05:01:24.575Z,2.72
2018-02-17T05:01:50.671Z,2.68
2018-02-17T05:02:16.771Z,2.71
2018-02-17T05:02:42.869Z,2.65
2018-02-17T05:03:08.970Z,2.54
2018-02-17T05:03:35.073Z,2.54
2018-02-17T05:04:01.173Z,2.53
2018-02-17T05:04:27.280Z,2.6
2018-02-17T05:04:53.404Z,2.47
2018-02-17T05:05:19.506Z,2.35
2018-02-17T05:05:45.622Z,2.44
2018-02-17T05:06:11.728Z,2.39
2018-02-17T05:06:37.821Z,2.28
2018-02-17T05:07:03.925Z,2.31
2018-02-17T05:07:30.020Z,2.33
2018-02-17T05:07:56.115Z,2.32
2018-02-17T05:08:22.217Z,2.28
2018-02-17T05:08:48.315Z,2.29
2018-02-17T05:09:14.411Z,2.32
2018-02-17T05:09:40.528Z,2.28
2018-02-17T05:10:06.632Z,2.29
2018-02-17T05:10:32.727Z,2.29
2018-02-17T05:10:58.831Z,2.32
2018-02-17T05:11:24.926Z,2.25
2018-02-17T05:11:51.030Z,2.17
2018-02-17T05:12:17.150Z,2.14
2018-02-17T05:12:43.245Z,2.22
2018-02-17T05:13:09.348Z,2.15
2018-02-17T05:13:35.443Z,2.11
2018-02-17T05:14:01.548Z,2.15
2018-02-17T05:14:27.660Z,2.08
2018-02-17T05:14:53.758Z,2.17
2018-02-17T05:15:19.863Z,2.13
2018-02-17T05:15:45.963Z,2.18
2018-02-17T05:16:12.060Z,2.17
2018-02-17T05:16:38.156Z,2.06
2018-02-17T05:17:04.260Z,2.08
2018-02-17T05:17:30.354Z,2
2018-02-17T05:17:56.458Z,2.04
2018-02-17T05:18:22.550Z,2.04
2018-02-17T05:18:48.657Z,2.02
2018-02-17T05:19:14.756Z,2.06
2018-02-17T05:19:40.854Z,1.95
2018-02-17T05:20:06.958Z,2.02
2018-02-17T05:20:33.053Z,1.97
2018-02-17T05:20:59.148Z,2
2018-02-17T05:21:25.260Z,2.02
2018-02-17T05:21:51.357Z,1.94
2018-02-17T05:22:17.453Z,2
2018-02-17T05:22:43.556Z,2
2018-02-17T05:23:09.654Z,2.04
2018-02-17T05:23:35.753Z,2.06
2018-02-17T05:24:01.856Z,2.1
2018-02-17T05:24:27.950Z,1.97
2018-02-17T05:24:54.055Z,1.97
2018-02-17T05:25:20.156Z,2.06
2018-02-17T05:25:46.255Z,2
2018-02-17T05:26:12.357Z,2.11
2018-02-17T05:26:38.451Z,2.11
2018-02-17T05:27:04.548Z,2.15
2018-02-17T05:27:30.643Z,2.15
2018-02-17T05:27:56.745Z,2.15
2018-02-17T05:28:22.844Z,2.24
2018-02-17T05:28:48.940Z,2.31
2018-02-17T05:29:15.057Z,2.31
2018-02-17T05:29:41.155Z,2.25
2018-02-17T05:30:07.250Z,2.28
2018-02-17T05:30:33.349Z,2.31
2018-02-17T05:30:59.453Z,2.42
2018-02-17T05:31:25.547Z,2.39
2018-02-17T05:31:51.653Z,2.44
2018-02-17T05:32:17.752Z,2.38
2018-02-17T05:32:43.846Z,2.39
2018-02-17T05:33:09.952Z,2.36
2018-02-17T05:33:36.049Z,2.46
2018-02-17T05:34:02.148Z,2.42
2018-02-17T05:34:28.252Z,2.47
2018-02-17T05:34:54.352Z,2.46
2018-02-17T05:35:20.447Z,2.44
2018-02-17T05:35:46.556Z,2.44
2018-02-17T05:36:12.649Z,2.46
2018-02-17T05:36:38.744Z,2.49
2018-02-17T05:37:04.843Z,2.46
2018-02-17T05:37:30.949Z,2.46
2018-02-17T05:37:57.046Z,2.47
2018-02-17T05:38:23.142Z,2.38
2018-02-17T05:38:49.245Z,2.43
2018-02-17T05:39:15.339Z,2.42
2018-02-17T05:39:41.438Z,2.39
2018-02-17T05:40:07.542Z,2.42
2018-02-17T05:40:33.636Z,2.43
2018-02-17T05:40:59.738Z,2.36
2018-02-17T05:41:25.878Z,2.31
2018-02-17T05:41:51.989Z,2.29
2018-02-17T05:42:18.093Z,2.31
2018-02-17T05:42:44.190Z,2.28
2018-02-17T05:43:10.294Z,2.32
2018-02-17T05:43:36.407Z,2.31
2018-02-17T05:44:02.505Z,2.29
2018-02-17T05:44:28.624Z,2.33
2018-02-17T05:44:54.726Z,2.29
2018-02-17T05:45:20.829Z,2.31
2018-02-17T05:45:46.931Z,2.29
2018-02-17T05:46:13.028Z,2.26
2018-02-17T05:46:39.129Z,2.32
2018-02-17T05:47:05.229Z,2.26
2018-02-17T05:47:31.320Z,2.26
2018-02-17T05:47:57.424Z,2.26
2018-02-17T05:48:23.519Z,2.2
2018-02-17T05:48:49.640Z,2.17
2018-02-17T05:49:15.731Z,2.13